sensor_id;sensor_type;location;lat;lon;timestamp;pressure;altitude;pressure_sealevel;temperature;humidity
19236;BME280;9752;54.270;12.470;2023-04-28T00:02:41;102598.22;;;-1.15;100.00
19236;BME280;9752;54.270;12.470;2023-04-28T00:07:44;102602.44;;;-1.22;100.00
19236;BME280;9752;54.270;12.470;2023-04-28T00:12:46;102606.47;;;-1.11;100.00
19236;BME280;9752;54.270;12.470;2023-04-28T00:17:48;102616.38;;;-0.94;100.00
19236;BME280;9752;54.270;12.470;2023-04-28T00:22:51;102631.28;;;-0.84;100.00
19236;BME280;9752;54.270;12.470;2023-04-28T00:27:52;102636.81;;;-0.68;100.00
19236;BME280;9752;54.270;12.470;2023-04-28T00:32:54;102641.59;;;-0.64;100.00
19236;BME280;9752;54.270;12.470;2023-04-28T00:37:57;102654.16;;;-0.53;100.00
19236;BME280;9752;54.270;12.470;2023-04-28T00:42:59;102657.22;;;-0.43;100.00
19236;BME280;9752;54.270;12.470;2023-04-28T00:48:01;102661.00;;;-0.33;100.00
19236;BME280;9752;54.270;12.470;2023-04-28T00:53:04;102670.69;;;-0.31;100.00
19236;BME280;9752;54.270;12.470;2023-04-28T00:58:07;102675.19;;;-0.35;100.00
19236;BME280;9752;54.270;12.470;2023-04-28T01:03:09;102665.88;;;-0.48;100.00
19236;BME280;9752;54.270;12.470;2023-04-28T01:08:12;102659.06;;;-0.54;100.00
19236;BME280;9752;54.270;12.470;2023-04-28T01:13:14;102667.41;;;-0.68;100.00
19236;BME280;9752;54.270;12.470;2023-04-28T01:18:16;102670.38;;;-0.52;100.00
19236;BME280;9752;54.270;12.470;2023-04-28T01:23:20;102690.88;;;-0.32;100.00
19236;BME280;9752;54.270;12.470;2023-04-28T01:28:23;102688.31;;;-0.45;100.00
19236;BME280;9752;54.270;12.470;2023-04-28T01:33:25;102691.03;;;-0.69;100.00
19236;BME280;9752;54.270;12.470;2023-04-28T01:38:26;102705.22;;;-0.58;100.00
19236;BME280;9752;54.270;12.470;2023-04-28T01:43:30;102699.28;;;-0.65;100.00
19236;BME280;9752;54.270;12.470;2023-04-28T01:48:32;102692.88;;;-0.68;100.00
19236;BME280;9752;54.270;12.470;2023-04-28T01:53:34;102699.34;;;-0.83;100.00
19236;BME280;9752;54.270;12.470;2023-04-28T01:58:37;102712.66;;;-0.60;100.00
19236;BME280;9752;54.270;12.470;2023-04-28T02:03:39;102705.38;;;-0.83;100.00
19236;BME280;9752;54.270;12.470;2023-04-28T02:08:40;102701.44;;;-0.99;100.00
19236;BME280;9752;54.270;12.470;2023-04-28T02:13:43;102708.84;;;-1.01;100.00
19236;BME280;9752;54.270;12.470;2023-04-28T02:18:45;102706.94;;;-0.96;100.00
19236;BME280;9752;54.270;12.470;2023-04-28T02:23:47;102715.59;;;-1.01;100.00
19236;BME280;9752;54.270;12.470;2023-04-28T02:28:51;102715.88;;;-1.05;100.00
19236;BME280;9752;54.270;12.470;2023-04-28T02:33:52;102714.53;;;-1.09;100.00
19236;BME280;9752;54.270;12.470;2023-04-28T02:38:54;102726.34;;;-1.09;100.00
19236;BME280;9752;54.270;12.470;2023-04-28T02:43:57;102726.44;;;-1.15;100.00
19236;BME280;9752;54.270;12.470;2023-04-28T02:48:59;102723.53;;;-1.24;100.00
19236;BME280;9752;54.270;12.470;2023-04-28T02:54:00;102727.91;;;-1.23;100.00
19236;BME280;9752;54.270;12.470;2023-04-28T02:59:03;102728.91;;;-1.28;100.00
19236;BME280;9752;54.270;12.470;2023-04-28T03:04:05;102729.03;;;-1.39;100.00
19236;BME280;9752;54.270;12.470;2023-04-28T03:09:07;102727.75;;;-1.48;100.00
19236;BME280;9752;54.270;12.470;2023-04-28T03:14:10;102725.72;;;-1.51;100.00
19236;BME280;9752;54.270;12.470;2023-04-28T03:19:12;102728.34;;;-1.57;100.00
19236;BME280;9752;54.270;12.470;2023-04-28T03:24:13;102717.31;;;-1.63;100.00
19236;BME280;9752;54.270;12.470;2023-04-28T03:29:17;102718.50;;;-1.66;100.00
19236;BME280;9752;54.270;12.470;2023-04-28T03:34:18;102726.06;;;-1.61;100.00
19236;BME280;9752;54.270;12.470;2023-04-28T03:39:20;102718.44;;;-1.61;100.00
19236;BME280;9752;54.270;12.470;2023-04-28T03:44:23;102717.03;;;-1.59;100.00
19236;BME280;9752;54.270;12.470;2023-04-28T03:49:27;102729.19;;;-1.50;100.00
19236;BME280;9752;54.270;12.470;2023-04-28T03:54:29;102736.00;;;-1.38;100.00
19236;BME280;9752;54.270;12.470;2023-04-28T03:59:34;102749.78;;;-1.12;100.00
19236;BME280;9752;54.270;12.470;2023-04-28T04:04:36;102753.41;;;-0.91;100.00
19236;BME280;9752;54.270;12.470;2023-04-28T04:09:37;102761.53;;;-0.75;100.00
19236;BME280;9752;54.270;12.470;2023-04-28T04:14:41;102765.66;;;-0.57;100.00
19236;BME280;9752;54.270;12.470;2023-04-28T04:19:44;102771.50;;;-0.46;100.00
19236;BME280;9752;54.270;12.470;2023-04-28T04:24:46;102784.28;;;-0.33;100.00
19236;BME280;9752;54.270;12.470;2023-04-28T04:29:49;102781.03;;;-0.19;100.00
19236;BME280;9752;54.270;12.470;2023-04-28T04:34:51;102789.66;;;-0.06;100.00
19236;BME280;9752;54.270;12.470;2023-04-28T04:39:52;102792.91;;;-0.07;100.00
19236;BME280;9752;54.270;12.470;2023-04-28T04:44:56;102791.38;;;-0.12;100.00
19236;BME280;9752;54.270;12.470;2023-04-28T04:50:03;102793.72;;;-0.01;100.00
19236;BME280;9752;54.270;12.470;2023-04-28T04:55:07;102806.94;;;0.15;100.00
19236;BME280;9752;54.270;12.470;2023-04-28T05:00:14;102806.31;;;0.36;100.00
19236;BME280;9752;54.270;12.470;2023-04-28T05:05:17;102807.72;;;0.47;100.00
19236;BME280;9752;54.270;12.470;2023-04-28T05:10:19;102818.22;;;0.82;100.00
19236;BME280;9752;54.270;12.470;2023-04-28T05:15:22;102835.41;;;1.15;100.00
19236;BME280;9752;54.270;12.470;2023-04-28T05:20:42;102835.72;;;1.11;100.00
19236;BME280;9752;54.270;12.470;2023-04-28T05:25:45;102838.91;;;1.36;100.00
19236;BME280;9752;54.270;12.470;2023-04-28T05:30:49;102855.06;;;2.02;100.00
19236;BME280;9752;54.270;12.470;2023-04-28T05:35:51;102871.09;;;2.48;100.00
19236;BME280;9752;54.270;12.470;2023-04-28T05:40:53;102873.59;;;3.03;100.00
19236;BME280;9752;54.270;12.470;2023-04-28T05:45:56;102887.31;;;3.52;100.00
19236;BME280;9752;54.270;12.470;2023-04-28T05:50:59;102890.88;;;3.96;100.00
19236;BME280;9752;54.270;12.470;2023-04-28T05:56:00;102894.16;;;4.38;100.00
19236;BME280;9752;54.270;12.470;2023-04-28T06:01:04;102888.03;;;4.73;100.00
19236;BME280;9752;54.270;12.470;2023-04-28T06:06:06;102884.94;;;5.20;100.00
19236;BME280;9752;54.270;12.470;2023-04-28T06:11:09;102869.69;;;5.52;100.00
19236;BME280;9752;54.270;12.470;2023-04-28T06:16:12;102845.44;;;6.03;100.00
19236;BME280;9752;54.270;12.470;2023-04-28T06:21:15;102833.63;;;6.60;100.00
19236;BME280;9752;54.270;12.470;2023-04-28T06:26:16;102804.75;;;6.88;100.00
19236;BME280;9752;54.270;12.470;2023-04-28T06:31:20;102764.75;;;7.16;100.00
19236;BME280;9752;54.270;12.470;2023-04-28T06:36:22;102706.50;;;7.27;100.00
19236;BME280;9752;54.270;12.470;2023-04-28T06:41:23;102641.81;;;7.25;100.00
19236;BME280;9752;54.270;12.470;2023-04-28T06:46:28;102570.09;;;7.65;100.00
19236;BME280;9752;54.270;12.470;2023-04-28T06:51:31;102495.22;;;8.36;100.00
19236;BME280;9752;54.270;12.470;2023-04-28T06:56:32;102404.56;;;8.98;100.00
19236;BME280;9752;54.270;12.470;2023-04-28T07:01:37;102317.69;;;9.30;100.00
19236;BME280;9752;54.270;12.470;2023-04-28T07:06:38;102211.97;;;8.86;100.00
19236;BME280;9752;54.270;12.470;2023-04-28T07:11:40;102131.56;;;9.04;100.00
19236;BME280;9752;54.270;12.470;2023-04-28T07:16:43;102071.06;;;9.22;100.00
19236;BME280;9752;54.270;12.470;2023-04-28T07:21:45;102000.13;;;9.30;100.00
19236;BME280;9752;54.270;12.470;2023-04-28T07:26:46;101972.00;;;9.66;100.00
19236;BME280;9752;54.270;12.470;2023-04-28T07:31:49;101938.22;;;9.86;100.00
19236;BME280;9752;54.270;12.470;2023-04-28T07:36:51;101922.16;;;10.23;100.00
19236;BME280;9752;54.270;12.470;2023-04-28T07:41:53;101866.81;;;10.44;100.00
19236;BME280;9752;54.270;12.470;2023-04-28T07:46:57;101865.97;;;10.55;100.00
19236;BME280;9752;54.270;12.470;2023-04-28T07:52:00;101857.59;;;10.48;100.00
19236;BME280;9752;54.270;12.470;2023-04-28T07:57:02;101851.59;;;10.71;100.00
19236;BME280;9752;54.270;12.470;2023-04-28T08:02:06;101851.31;;;11.02;100.00
19236;BME280;9752;54.270;12.470;2023-04-28T08:07:08;101846.25;;;11.15;100.00
19236;BME280;9752;54.270;12.470;2023-04-28T08:12:10;101839.50;;;11.29;100.00
19236;BME280;9752;54.270;12.470;2023-04-28T08:17:14;101839.25;;;11.38;100.00
19236;BME280;9752;54.270;12.470;2023-04-28T08:22:15;101832.25;;;11.13;100.00
19236;BME280;9752;54.270;12.470;2023-04-28T08:27:17;101827.38;;;11.77;100.00
19236;BME280;9752;54.270;12.470;2023-04-28T08:32:20;101828.03;;;11.86;100.00
19236;BME280;9752;54.270;12.470;2023-04-28T08:37:22;101825.44;;;11.98;100.00
19236;BME280;9752;54.270;12.470;2023-04-28T08:42:24;101823.50;;;12.32;100.00
19236;BME280;9752;54.270;12.470;2023-04-28T08:47:32;101824.31;;;12.44;100.00
19236;BME280;9752;54.270;12.470;2023-04-28T08:52:34;101826.38;;;12.87;100.00
19236;BME280;9752;54.270;12.470;2023-04-28T08:57:38;101814.88;;;12.97;100.00
19236;BME280;9752;54.270;12.470;2023-04-28T09:02:41;101812.22;;;12.70;100.00
19236;BME280;9752;54.270;12.470;2023-04-28T09:07:44;101810.47;;;12.96;100.00
19236;BME280;9752;54.270;12.470;2023-04-28T09:12:46;101802.28;;;13.43;100.00
19236;BME280;9752;54.270;12.470;2023-04-28T09:17:50;101786.94;;;13.61;100.00
19236;BME280;9752;54.270;12.470;2023-04-28T09:22:53;101793.63;;;13.71;100.00
19236;BME280;9752;54.270;12.470;2023-04-28T09:27:55;101786.03;;;13.74;100.00
19236;BME280;9752;54.270;12.470;2023-04-28T09:33:04;101786.94;;;14.02;100.00
19236;BME280;9752;54.270;12.470;2023-04-28T09:38:07;101779.63;;;14.25;100.00
19236;BME280;9752;54.270;12.470;2023-04-28T09:43:21;101775.88;;;14.06;100.00
19236;BME280;9752;54.270;12.470;2023-04-28T09:48:33;101764.88;;;14.69;100.00
19236;BME280;9752;54.270;12.470;2023-04-28T09:53:34;101761.88;;;14.92;100.00
19236;BME280;9752;54.270;12.470;2023-04-28T09:58:39;101749.25;;;15.46;100.00
19236;BME280;9752;54.270;12.470;2023-04-28T10:03:43;101753.13;;;15.21;100.00
19236;BME280;9752;54.270;12.470;2023-04-28T10:08:45;101742.56;;;15.83;100.00
19236;BME280;9752;54.270;12.470;2023-04-28T10:13:48;101737.81;;;15.60;95.43
19236;BME280;9752;54.270;12.470;2023-04-28T10:18:52;101729.78;;;15.89;98.41
19236;BME280;9752;54.270;12.470;2023-04-28T10:24:04;101724.47;;;15.71;99.76
19236;BME280;9752;54.270;12.470;2023-04-28T10:29:09;101713.53;;;15.47;94.81
19236;BME280;9752;54.270;12.470;2023-04-28T10:34:22;101705.00;;;15.66;94.44
19236;BME280;9752;54.270;12.470;2023-04-28T10:39:28;101702.13;;;16.27;100.00
19236;BME280;9752;54.270;12.470;2023-04-28T10:44:42;101702.16;;;16.45;100.00
19236;BME280;9752;54.270;12.470;2023-04-28T10:50:04;101686.25;;;16.58;98.71
19236;BME280;9752;54.270;12.470;2023-04-28T10:55:25;101685.00;;;16.68;100.00
19236;BME280;9752;54.270;12.470;2023-04-28T11:00:28;101673.38;;;15.77;94.32
19236;BME280;9752;54.270;12.470;2023-04-28T11:05:32;101667.31;;;15.62;94.25
19236;BME280;9752;54.270;12.470;2023-04-28T11:16:09;101658.94;;;16.71;96.71
19236;BME280;9752;54.270;12.470;2023-04-28T11:21:13;101651.56;;;16.98;94.32
19236;BME280;9752;54.270;12.470;2023-04-28T11:26:15;101656.53;;;16.39;93.71
19236;BME280;9752;54.270;12.470;2023-04-28T11:31:17;101650.13;;;15.51;92.30
19236;BME280;9752;54.270;12.470;2023-04-28T11:36:23;101650.16;;;15.03;91.99
19236;BME280;9752;54.270;12.470;2023-04-28T11:41:25;101645.81;;;15.35;99.01
19236;BME280;9752;54.270;12.470;2023-04-28T11:46:27;101646.22;;;15.59;95.83
19236;BME280;9752;54.270;12.470;2023-04-28T11:51:35;101634.63;;;15.54;98.54
19236;BME280;9752;54.270;12.470;2023-04-28T11:56:38;101629.78;;;16.11;97.83
19236;BME280;9752;54.270;12.470;2023-04-28T12:01:44;101611.50;;;16.83;92.75
19236;BME280;9752;54.270;12.470;2023-04-28T12:06:57;101619.09;;;17.14;97.77
19236;BME280;9752;54.270;12.470;2023-04-28T12:12:00;101607.91;;;17.18;91.20
19236;BME280;9752;54.270;12.470;2023-04-28T12:17:02;101607.66;;;17.12;93.81
19236;BME280;9752;54.270;12.470;2023-04-28T12:22:05;101608.28;;;16.88;93.81
19236;BME280;9752;54.270;12.470;2023-04-28T12:27:15;101603.09;;;17.27;92.30
19236;BME280;9752;54.270;12.470;2023-04-28T12:32:17;101601.72;;;17.16;89.48
19236;BME280;9752;54.270;12.470;2023-04-28T12:37:20;101605.44;;;16.84;92.34
19236;BME280;9752;54.270;12.470;2023-04-28T12:42:22;101596.09;;;16.53;91.13
19236;BME280;9752;54.270;12.470;2023-04-28T12:47:24;101578.81;;;17.31;91.84
19236;BME280;9752;54.270;12.470;2023-04-28T12:52:27;101577.91;;;17.50;86.77
19236;BME280;9752;54.270;12.470;2023-04-28T12:57:29;101566.19;;;18.23;89.43
19236;BME280;9752;54.270;12.470;2023-04-28T13:02:30;101571.78;;;17.50;83.28
19236;BME280;9752;54.270;12.470;2023-04-28T13:07:33;101564.84;;;17.71;83.44
19236;BME280;9752;54.270;12.470;2023-04-28T13:12:35;101559.16;;;17.61;81.94
19236;BME280;9752;54.270;12.470;2023-04-28T13:17:37;101537.25;;;17.81;80.25
19236;BME280;9752;54.270;12.470;2023-04-28T13:22:40;101530.31;;;17.62;77.94
19236;BME280;9752;54.270;12.470;2023-04-28T13:27:42;101522.94;;;17.73;78.22
19236;BME280;9752;54.270;12.470;2023-04-28T13:32:43;101528.09;;;17.91;81.07
19236;BME280;9752;54.270;12.470;2023-04-28T13:37:46;101501.41;;;18.45;78.95
19236;BME280;9752;54.270;12.470;2023-04-28T13:42:48;101501.84;;;18.57;79.01
19236;BME280;9752;54.270;12.470;2023-04-28T13:47:50;101480.66;;;18.75;73.80
19236;BME280;9752;54.270;12.470;2023-04-28T13:52:53;101491.59;;;18.63;74.97
19236;BME280;9752;54.270;12.470;2023-04-28T13:57:55;101496.13;;;18.22;72.92
19236;BME280;9752;54.270;12.470;2023-04-28T14:03:00;101505.84;;;17.83;76.21
19236;BME280;9752;54.270;12.470;2023-04-28T14:08:03;101505.13;;;17.66;77.63
19236;BME280;9752;54.270;12.470;2023-04-28T14:13:05;101503.41;;;17.26;78.60
19236;BME280;9752;54.270;12.470;2023-04-28T14:18:07;101513.88;;;16.87;85.85
19236;BME280;9752;54.270;12.470;2023-04-28T14:23:10;101508.59;;;16.31;96.10
19236;BME280;9752;54.270;12.470;2023-04-28T14:28:12;101502.72;;;15.99;98.95
19236;BME280;9752;54.270;12.470;2023-04-28T14:33:13;101496.31;;;16.11;100.00
19236;BME280;9752;54.270;12.470;2023-04-28T14:38:17;101487.78;;;16.15;100.00
19236;BME280;9752;54.270;12.470;2023-04-28T14:43:18;101481.19;;;16.05;100.00
19236;BME280;9752;54.270;12.470;2023-04-28T14:48:20;101479.19;;;15.65;100.00
19236;BME280;9752;54.270;12.470;2023-04-28T14:53:23;101484.53;;;15.34;100.00
19236;BME280;9752;54.270;12.470;2023-04-28T14:58:25;101481.56;;;15.44;100.00
19236;BME280;9752;54.270;12.470;2023-04-28T15:03:26;101485.72;;;14.90;100.00
19236;BME280;9752;54.270;12.470;2023-04-28T15:08:29;101475.56;;;14.79;100.00
19236;BME280;9752;54.270;12.470;2023-04-28T15:13:31;101473.88;;;14.80;100.00
19236;BME280;9752;54.270;12.470;2023-04-28T15:18:33;101472.31;;;14.67;100.00
19236;BME280;9752;54.270;12.470;2023-04-28T15:23:36;101467.09;;;14.67;100.00
19236;BME280;9752;54.270;12.470;2023-04-28T15:28:38;101466.09;;;14.02;100.00
19236;BME280;9752;54.270;12.470;2023-04-28T15:33:39;101462.91;;;14.23;100.00
19236;BME280;9752;54.270;12.470;2023-04-28T15:38:42;101465.25;;;14.03;100.00
19236;BME280;9752;54.270;12.470;2023-04-28T15:43:45;101467.28;;;13.93;100.00
19236;BME280;9752;54.270;12.470;2023-04-28T15:48:47;101464.78;;;13.64;100.00
19236;BME280;9752;54.270;12.470;2023-04-28T15:53:50;101459.91;;;13.56;100.00
19236;BME280;9752;54.270;12.470;2023-04-28T15:58:54;101465.59;;;13.34;100.00
19236;BME280;9752;54.270;12.470;2023-04-28T16:03:56;101459.28;;;13.30;100.00
19236;BME280;9752;54.270;12.470;2023-04-28T16:08:59;101451.50;;;13.17;100.00
19236;BME280;9752;54.270;12.470;2023-04-28T16:14:01;101463.06;;;13.07;100.00
19236;BME280;9752;54.270;12.470;2023-04-28T16:19:03;101456.63;;;12.59;100.00
19236;BME280;9752;54.270;12.470;2023-04-28T16:24:06;101451.38;;;12.72;100.00
19236;BME280;9752;54.270;12.470;2023-04-28T16:29:08;101450.84;;;12.49;100.00
19236;BME280;9752;54.270;12.470;2023-04-28T16:34:09;101454.91;;;12.04;100.00
19236;BME280;9752;54.270;12.470;2023-04-28T16:39:12;101455.28;;;11.70;100.00
19236;BME280;9752;54.270;12.470;2023-04-28T16:44:15;101460.78;;;11.62;100.00
19236;BME280;9752;54.270;12.470;2023-04-28T16:49:16;101458.41;;;11.40;100.00
19236;BME280;9752;54.270;12.470;2023-04-28T16:54:19;101460.31;;;11.04;100.00
19236;BME280;9752;54.270;12.470;2023-04-28T16:59:21;101450.50;;;11.00;100.00
19236;BME280;9752;54.270;12.470;2023-04-28T17:04:25;101447.69;;;10.83;100.00
19236;BME280;9752;54.270;12.470;2023-04-28T17:09:28;101442.09;;;10.90;100.00
19236;BME280;9752;54.270;12.470;2023-04-28T17:14:32;101442.97;;;10.66;100.00
19236;BME280;9752;54.270;12.470;2023-04-28T17:19:34;101439.88;;;10.46;100.00
19236;BME280;9752;54.270;12.470;2023-04-28T17:24:38;101432.81;;;10.32;100.00
19236;BME280;9752;54.270;12.470;2023-04-28T17:29:39;101436.09;;;10.06;100.00
19236;BME280;9752;54.270;12.470;2023-04-28T17:34:42;101429.34;;;9.84;100.00
19236;BME280;9752;54.270;12.470;2023-04-28T17:39:47;101422.59;;;9.63;100.00
19236;BME280;9752;54.270;12.470;2023-04-28T17:44:49;101438.78;;;9.48;100.00
19236;BME280;9752;54.270;12.470;2023-04-28T17:49:51;101428.53;;;9.26;100.00
19236;BME280;9752;54.270;12.470;2023-04-28T17:54:55;101423.38;;;9.04;100.00
19236;BME280;9752;54.270;12.470;2023-04-28T17:59:56;101424.81;;;8.89;100.00
19236;BME280;9752;54.270;12.470;2023-04-28T18:04:58;101431.25;;;8.72;100.00
19236;BME280;9752;54.270;12.470;2023-04-28T18:10:01;101422.06;;;8.53;100.00
19236;BME280;9752;54.270;12.470;2023-04-28T18:15:04;101421.34;;;8.44;100.00
19236;BME280;9752;54.270;12.470;2023-04-28T18:20:06;101412.84;;;8.35;100.00
19236;BME280;9752;54.270;12.470;2023-04-28T18:25:10;101413.00;;;8.26;100.00
19236;BME280;9752;54.270;12.470;2023-04-28T18:30:12;101417.81;;;8.21;100.00
19236;BME280;9752;54.270;12.470;2023-04-28T18:35:14;101414.50;;;8.12;100.00
19236;BME280;9752;54.270;12.470;2023-04-28T18:40:18;101414.13;;;8.08;100.00
19236;BME280;9752;54.270;12.470;2023-04-28T18:45:19;101420.97;;;8.07;100.00
19236;BME280;9752;54.270;12.470;2023-04-28T18:50:21;101419.69;;;8.02;100.00
19236;BME280;9752;54.270;12.470;2023-04-28T18:55:24;101423.06;;;8.01;100.00
19236;BME280;9752;54.270;12.470;2023-04-28T19:00:26;101425.03;;;7.93;100.00
19236;BME280;9752;54.270;12.470;2023-04-28T19:05:29;101421.44;;;7.91;100.00
19236;BME280;9752;54.270;12.470;2023-04-28T19:10:32;101427.25;;;7.89;100.00
19236;BME280;9752;54.270;12.470;2023-04-28T19:15:34;101434.09;;;7.88;100.00
19236;BME280;9752;54.270;12.470;2023-04-28T19:20:35;101441.72;;;7.87;100.00
19236;BME280;9752;54.270;12.470;2023-04-28T19:25:38;101436.41;;;7.85;100.00
19236;BME280;9752;54.270;12.470;2023-04-28T19:30:40;101439.00;;;7.85;100.00
19236;BME280;9752;54.270;12.470;2023-04-28T19:35:42;101441.47;;;7.84;100.00
19236;BME280;9752;54.270;12.470;2023-04-28T19:40:45;101449.63;;;7.78;100.00
19236;BME280;9752;54.270;12.470;2023-04-28T19:45:46;101449.38;;;7.75;100.00
19236;BME280;9752;54.270;12.470;2023-04-28T19:50:48;101456.84;;;7.72;100.00
19236;BME280;9752;54.270;12.470;2023-04-28T19:55:51;101454.94;;;7.69;100.00
19236;BME280;9752;54.270;12.470;2023-04-28T20:00:54;101450.16;;;7.63;100.00
19236;BME280;9752;54.270;12.470;2023-04-28T20:05:55;101447.22;;;7.59;100.00
19236;BME280;9752;54.270;12.470;2023-04-28T20:10:58;101449.66;;;7.57;100.00
19236;BME280;9752;54.270;12.470;2023-04-28T20:16:00;101449.53;;;7.56;100.00
19236;BME280;9752;54.270;12.470;2023-04-28T20:21:03;101439.59;;;7.50;100.00
19236;BME280;9752;54.270;12.470;2023-04-28T20:26:11;101435.84;;;7.47;100.00
19236;BME280;9752;54.270;12.470;2023-04-28T20:31:13;101432.75;;;7.51;100.00
19236;BME280;9752;54.270;12.470;2023-04-28T20:36:15;101421.81;;;7.53;100.00
19236;BME280;9752;54.270;12.470;2023-04-28T20:41:18;101429.63;;;7.55;100.00
19236;BME280;9752;54.270;12.470;2023-04-28T20:46:20;101433.50;;;7.60;100.00
19236;BME280;9752;54.270;12.470;2023-04-28T20:51:22;101431.97;;;7.62;100.00
19236;BME280;9752;54.270;12.470;2023-04-28T20:56:25;101433.78;;;7.63;100.00
19236;BME280;9752;54.270;12.470;2023-04-28T21:01:27;101418.03;;;7.60;100.00
19236;BME280;9752;54.270;12.470;2023-04-28T21:06:29;101424.75;;;7.58;100.00
19236;BME280;9752;54.270;12.470;2023-04-28T21:11:32;101416.72;;;7.55;100.00
19236;BME280;9752;54.270;12.470;2023-04-28T21:16:34;101408.22;;;7.56;100.00
19236;BME280;9752;54.270;12.470;2023-04-28T21:21:35;101397.53;;;7.51;100.00
19236;BME280;9752;54.270;12.470;2023-04-28T21:26:39;101398.03;;;7.47;100.00
19236;BME280;9752;54.270;12.470;2023-04-28T21:31:41;101399.06;;;7.49;100.00
19236;BME280;9752;54.270;12.470;2023-04-28T21:36:43;101388.88;;;7.51;100.00
19236;BME280;9752;54.270;12.470;2023-04-28T21:41:46;101390.97;;;7.45;100.00
19236;BME280;9752;54.270;12.470;2023-04-28T21:46:47;101373.66;;;7.43;100.00
19236;BME280;9752;54.270;12.470;2023-04-28T21:51:49;101369.94;;;7.40;100.00
19236;BME280;9752;54.270;12.470;2023-04-28T21:56:52;101366.44;;;7.39;100.00
19236;BME280;9752;54.270;12.470;2023-04-28T22:01:54;101362.31;;;7.41;100.00
19236;BME280;9752;54.270;12.470;2023-04-28T22:06:56;101359.09;;;7.44;100.00
19236;BME280;9752;54.270;12.470;2023-04-28T22:11:59;101360.50;;;7.40;100.00
19236;BME280;9752;54.270;12.470;2023-04-28T22:17:00;101361.41;;;7.41;100.00
19236;BME280;9752;54.270;12.470;2023-04-28T22:22:02;101352.78;;;7.40;100.00
19236;BME280;9752;54.270;12.470;2023-04-28T22:27:06;101351.97;;;7.41;100.00
19236;BME280;9752;54.270;12.470;2023-04-28T22:32:08;101352.91;;;7.42;100.00
19236;BME280;9752;54.270;12.470;2023-04-28T22:37:10;101350.41;;;7.43;100.00
19236;BME280;9752;54.270;12.470;2023-04-28T22:42:13;101338.66;;;7.47;100.00
19236;BME280;9752;54.270;12.470;2023-04-28T22:47:15;101331.84;;;7.48;100.00
19236;BME280;9752;54.270;12.470;2023-04-28T22:52:16;101333.91;;;7.52;100.00
19236;BME280;9752;54.270;12.470;2023-04-28T22:57:21;101326.38;;;7.55;100.00
19236;BME280;9752;54.270;12.470;2023-04-28T23:02:22;101324.47;;;7.52;100.00
19236;BME280;9752;54.270;12.470;2023-04-28T23:07:24;101325.25;;;7.51;100.00
19236;BME280;9752;54.270;12.470;2023-04-28T23:12:27;101319.44;;;7.54;100.00
19236;BME280;9752;54.270;12.470;2023-04-28T23:17:29;101310.41;;;7.49;100.00
19236;BME280;9752;54.270;12.470;2023-04-28T23:22:31;101324.63;;;7.43;100.00
19236;BME280;9752;54.270;12.470;2023-04-28T23:27:34;101314.81;;;7.39;100.00
19236;BME280;9752;54.270;12.470;2023-04-28T23:32:36;101312.56;;;7.32;100.00
19236;BME280;9752;54.270;12.470;2023-04-28T23:37:38;101318.75;;;7.24;100.00
19236;BME280;9752;54.270;12.470;2023-04-28T23:42:41;101303.91;;;7.21;100.00
19236;BME280;9752;54.270;12.470;2023-04-28T23:47:43;101304.97;;;7.13;100.00
19236;BME280;9752;54.270;12.470;2023-04-28T23:52:44;101300.22;;;7.08;100.00
19236;BME280;9752;54.270;12.470;2023-04-28T23:57:48;101295.06;;;7.08;100.00
